Time;durP1;ratioP1;P1;durP2;ratioP2;P2;SDS_P1;SDS_P2;PMS_P1;PMS_P2;Temp;Humidity;BMP_temperature;BMP_pressure;BME280_temperature;BME280_humidity;BME280_pressure;Samples;Min_cycle;Max_cycle;Signal;HPM_P1;HPM_P2
2022/11/08 00:02:23;;;;;;;32.35;16.95;;;7.80;99.90;;;;;;4992765;28;20037;-65
2022/11/08 00:04:49;;;;;;;28.15;16.38;;;7.80;99.90;;;;;;4993142;28;20038;-67
2022/11/08 00:15:28;;;;;;;31.73;16.83;;;7.70;99.90;;;;;;4992970;28;20037;-66
2022/11/08 00:17:55;;;;;;;29.52;16.02;;;7.70;99.90;;;;;;4992449;28;20493;-62
2022/11/08 00:20:21;;;;;;;26.58;15.25;;;7.70;99.90;;;;;;4992902;28;20078;-66
2022/11/08 00:22:46;;;;;;;35.25;17.92;;;7.60;99.90;;;;;;4992766;28;20081;-62
2022/11/08 00:25:12;;;;;;;32.95;17.13;;;7.60;99.90;;;;;;4992715;28;20057;-61
2022/11/08 00:27:38;;;;;;;30.45;15.98;;;7.60;99.90;;;;;;4992684;28;20026;-63
2022/11/08 00:30:04;;;;;;;32.33;16.75;;;7.60;99.90;;;;;;4992451;28;20164;-66
2022/11/08 00:32:29;;;;;;;27.98;16.33;;;7.60;99.90;;;;;;4992236;28;20042;-63
2022/11/08 00:34:55;;;;;;;31.13;15.20;;;7.70;99.90;;;;;;4992183;28;20034;-65
2022/11/08 00:37:21;;;;;;;29.40;15.95;;;7.60;99.90;;;;;;4992551;28;20030;-65
2022/11/08 00:39:47;;;;;;;27.48;14.35;;;7.70;99.90;;;;;;4992311;28;20049;-63
2022/11/08 00:42:13;;;;;;;29.02;16.45;;;7.70;99.90;;;;;;4992260;28;20093;-62
2022/11/08 00:44:38;;;;;;;24.77;14.20;;;7.70;99.90;;;;;;4974616;28;20030;-65
2022/11/08 00:47:04;;;;;;;26.25;14.50;;;7.70;99.90;;;;;;4992146;28;20037;-67
2022/11/08 00:49:30;;;;;;;27.23;14.88;;;7.70;99.90;;;;;;4992256;28;20030;-64
2022/11/08 00:51:56;;;;;;;24.63;14.55;;;7.80;99.90;;;;;;4992267;28;20593;-65
2022/11/08 00:54:22;;;;;;;30.35;14.02;;;7.80;99.90;;;;;;4994449;28;20018;-66
2022/11/08 00:56:48;;;;;;;26.02;13.90;;;7.80;99.90;;;;;;4994789;28;20420;-65
2022/11/08 00:59:16;;;;;;;24.25;12.48;;;7.80;99.90;;;;;;4993742;28;20496;-63
2022/11/08 01:01:41;;;;;;;27.02;13.30;;;7.80;99.90;;;;;;4983473;28;20534;-63
2022/11/08 01:04:08;;;;;;;21.65;12.07;;;7.80;99.90;;;;;;4991789;28;20039;-64
2022/11/08 01:06:34;;;;;;;21.02;12.77;;;7.70;99.90;;;;;;4991743;28;20085;-64
2022/11/08 01:09:00;;;;;;;23.33;13.43;;;7.70;99.90;;;;;;4992092;28;20030;-62
2022/11/08 01:11:27;;;;;;;23.45;12.82;;;7.80;99.90;;;;;;4991796;28;20375;-63
2022/11/08 01:13:57;;;;;;;23.73;13.32;;;7.80;99.90;;;;;;4973982;28;20393;-63
2022/11/08 01:16:25;;;;;;;20.73;11.85;;;7.80;99.90;;;;;;4991749;28;20034;-63
2022/11/08 01:18:53;;;;;;;19.65;12.70;;;7.70;99.90;;;;;;4991506;28;20052;-61
2022/11/08 01:21:19;;;;;;;24.35;13.15;;;7.80;99.90;;;;;;4991822;28;20026;-62
2022/11/08 01:23:45;;;;;;;22.98;12.35;;;7.80;99.90;;;;;;4991722;28;20049;-63
2022/11/08 01:26:14;;;;;;;27.85;13.15;;;7.70;99.90;;;;;;4991481;28;20549;-65
2022/11/08 01:28:40;;;;;;;20.92;12.45;;;7.70;99.90;;;;;;4991561;28;20027;-68
2022/11/08 01:31:14;;;;;;;24.58;12.95;;;7.70;99.90;;;;;;4991889;28;20073;-63
2022/11/08 01:33:41;;;;;;;24.50;11.90;;;7.70;99.90;;;;;;4991450;28;20066;-63
2022/11/08 01:36:12;;;;;;;21.70;12.68;;;7.70;99.90;;;;;;4991456;28;20064;-64
2022/11/08 01:38:38;;;;;;;26.92;13.40;;;7.70;99.90;;;;;;4991289;28;20045;-64
2022/11/08 01:41:04;;;;;;;22.52;12.23;;;7.70;99.90;;;;;;4991310;28;20031;-64
2022/11/08 01:43:33;;;;;;;22.35;12.48;;;7.70;99.90;;;;;;4991298;28;20026;-66
2022/11/08 01:46:17;;;;;;;23.25;11.90;;;7.70;99.90;;;;;;4990864;28;20050;-65
2022/11/08 01:48:59;;;;;;;23.73;12.88;;;7.80;99.90;;;;;;4991179;28;20033;-62
2022/11/08 01:51:40;;;;;;;26.95;12.60;;;7.70;99.90;;;;;;4991215;28;20030;-67
2022/11/08 01:54:10;;;;;;;26.70;13.20;;;7.70;99.90;;;;;;4973829;28;20034;-64
2022/11/08 01:56:37;;;;;;;23.15;13.05;;;7.70;99.90;;;;;;4973375;28;20029;-62
2022/11/08 01:59:05;;;;;;;27.85;14.10;;;7.70;99.90;;;;;;4990962;28;20054;-62
2022/11/08 02:01:31;;;;;;;28.52;13.88;;;7.70;99.90;;;;;;4957375;28;20709;-62
2022/11/08 02:03:57;;;;;;;24.70;13.45;;;7.70;99.90;;;;;;4990992;28;20474;-64
2022/11/08 02:06:24;;;;;;;26.05;13.98;;;7.60;99.90;;;;;;4973696;28;20030;-65
2022/11/08 02:08:49;;;;;;;23.43;12.63;;;7.60;99.90;;;;;;4990879;28;20494;-63
2022/11/08 02:11:17;;;;;;;23.92;12.70;;;7.60;99.90;;;;;;4990641;28;20365;-63
2022/11/08 02:13:43;;;;;;;23.33;12.63;;;7.60;99.90;;;;;;4991192;28;20467;-65
2022/11/08 02:16:15;;;;;;;23.80;12.98;;;7.60;99.90;;;;;;4990833;28;20466;-65
2022/11/08 02:18:43;;;;;;;18.58;12.13;;;7.60;99.90;;;;;;4990634;28;20425;-63
2022/11/08 02:21:08;;;;;;;;;;;7.60;99.90;;;;;;4990955;28;20442;-62
2022/11/08 02:24:00;;;;;;;22.52;12.48;;;7.60;99.90;;;;;;4990702;28;19917;-61
2022/11/08 02:26:32;;;;;;;31.88;12.77;;;7.60;99.90;;;;;;4990460;28;20085;-65
2022/11/08 02:28:58;;;;;;;21.95;13.30;;;7.70;99.90;;;;;;4973200;28;20034;-65
2022/11/08 02:31:24;;;;;;;25.85;12.55;;;7.70;99.90;;;;;;4990445;28;20037;-61
2022/11/08 02:33:50;;;;;;;26.27;13.23;;;7.60;99.90;;;;;;4973073;28;20026;-63
2022/11/08 02:36:24;;;;;;;24.23;13.43;;;7.60;99.90;;;;;;4990795;28;20033;-62
2022/11/08 02:38:53;;;;;;;26.63;13.20;;;7.60;99.90;;;;;;4990692;28;20026;-65
2022/11/08 02:41:19;;;;;;;23.92;13.75;;;7.60;99.90;;;;;;4990324;28;20026;-62
2022/11/08 02:43:44;;;;;;;25.25;13.52;;;7.60;99.90;;;;;;4990711;28;20138;-61
2022/11/08 02:46:10;;;;;;;29.58;14.15;;;7.60;99.90;;;;;;4990232;28;20540;-61
2022/11/08 02:48:35;;;;;;;22.48;13.68;;;7.60;99.90;;;;;;4990384;28;20030;-64
2022/11/08 02:51:01;;;;;;;24.05;13.55;;;7.60;99.90;;;;;;4990271;28;20109;-64
2022/11/08 02:53:27;;;;;;;27.98;14.10;;;7.50;99.90;;;;;;4990400;28;20145;-63
2022/11/08 02:55:53;;;;;;;23.73;13.68;;;7.50;99.90;;;;;;4989220;28;20453;-65
2022/11/08 02:58:18;;;;;;;26.88;14.02;;;7.50;99.90;;;;;;4990543;28;20034;-63
2022/11/08 03:00:44;;;;;;;23.98;13.57;;;7.50;99.90;;;;;;4973296;28;20033;-63
2022/11/08 03:03:10;;;;;;;30.83;14.63;;;7.50;99.90;;;;;;4990754;28;20444;-64
2022/11/08 03:05:35;;;;;;;26.15;14.10;;;7.50;99.90;;;;;;4990424;28;20038;-65
2022/11/08 03:08:01;;;;;;;28.55;14.57;;;7.50;99.90;;;;;;4990572;28;20450;-64
2022/11/08 03:10:27;;;;;;;28.10;14.30;;;7.60;99.90;;;;;;4990478;28;20034;-62
2022/11/08 03:12:57;;;;;;;25.25;14.10;;;7.60;99.90;;;;;;4990667;28;20069;-64
2022/11/08 03:15:23;;;;;;;27.00;13.93;;;7.60;99.90;;;;;;4972765;28;20058;-63
2022/11/08 03:17:49;;;;;;;31.38;16.52;;;7.60;99.90;;;;;;4990270;28;20026;-65
2022/11/08 03:20:15;;;;;;;33.30;19.65;;;7.50;99.90;;;;;;4990272;28;20493;-63
2022/11/08 03:22:41;;;;;;;36.92;18.48;;;7.50;99.90;;;;;;4990143;28;20030;-64
2022/11/08 03:25:07;;;;;;;35.90;18.23;;;7.50;99.90;;;;;;4993466;28;20053;-66
2022/11/08 03:27:33;;;;;;;32.83;16.73;;;7.50;99.90;;;;;;4993875;28;20022;-65
2022/11/08 03:29:58;;;;;;;29.58;15.38;;;7.50;99.90;;;;;;4993778;28;20057;-63
2022/11/08 03:32:24;;;;;;;24.33;12.70;;;7.50;99.90;;;;;;4976251;28;20094;-63
2022/11/08 03:34:49;;;;;;;24.00;12.85;;;7.50;99.90;;;;;;4993776;28;20031;-63
2022/11/08 03:37:15;;;;;;;27.05;13.95;;;7.50;99.90;;;;;;4976256;28;20055;-64
2022/11/08 03:39:41;;;;;;;20.63;12.45;;;7.40;99.90;;;;;;4993846;28;20166;-64
2022/11/08 03:42:07;;;;;;;22.10;11.90;;;7.50;99.90;;;;;;4993656;28;20481;-65
2022/11/08 03:44:33;;;;;;;22.70;12.07;;;7.50;99.90;;;;;;4993405;28;20034;-63
2022/11/08 03:46:59;;;;;;;22.60;11.90;;;7.50;99.90;;;;;;4993482;28;20030;-65
2022/11/08 03:49:25;;;;;;;24.92;12.77;;;7.50;99.90;;;;;;4993331;28;20077;-63
2022/11/08 03:51:54;;;;;;;21.40;12.70;;;7.50;99.90;;;;;;4993499;28;20093;-65
2022/11/08 03:54:19;;;;;;;24.33;12.30;;;7.50;99.90;;;;;;4993381;28;20780;-65
2022/11/08 03:56:45;;;;;;;20.63;12.75;;;7.40;99.90;;;;;;4993053;28;20026;-60
2022/11/08 03:59:11;;;;;;;22.42;13.63;;;7.40;99.90;;;;;;4993170;28;20482;-65
2022/11/08 04:01:38;;;;;;;21.65;13.30;;;7.40;99.90;;;;;;4993288;28;20109;-63
2022/11/08 04:04:04;;;;;;;25.55;15.98;;;7.40;99.90;;;;;;4975497;28;20319;-64
2022/11/08 04:06:30;;;;;;;26.92;15.23;;;7.40;99.90;;;;;;4993003;28;20030;-66
2022/11/08 04:08:56;;;;;;;26.67;15.85;;;7.30;99.90;;;;;;4992976;28;20022;-65
2022/11/08 04:16:52;;;;;;;27.70;16.40;;;7.40;99.90;;;;;;4993024;28;20085;-63
2022/11/08 04:22:05;;;;;;;29.00;14.93;;;7.50;99.90;;;;;;4992920;28;20040;-62
2022/11/08 04:24:34;;;;;;;29.45;16.75;;;7.40;99.90;;;;;;4992473;28;20518;-66
2022/11/08 04:27:01;;;;;;;26.92;16.48;;;7.40;99.90;;;;;;4992459;28;20023;-64
2022/11/08 04:29:27;;;;;;;32.28;17.40;;;7.40;99.90;;;;;;4992595;28;20109;-65
2022/11/08 04:31:53;;;;;;;30.52;17.00;;;7.40;99.90;;;;;;4992500;28;20133;-67
2022/11/08 04:34:18;;;;;;;31.17;17.70;;;7.40;99.90;;;;;;4992347;28;20030;-64
2022/11/08 04:36:44;;;;;;;27.27;17.08;;;7.30;99.90;;;;;;4992274;28;20342;-63
2022/11/08 04:39:10;;;;;;;28.23;16.73;;;7.30;99.90;;;;;;4992355;28;20027;-63
2022/11/08 04:41:35;;;;;;;34.42;18.60;;;7.30;99.90;;;;;;4992235;28;20114;-64
2022/11/08 04:44:01;;;;;;;29.63;17.85;;;7.40;99.90;;;;;;4992467;28;20054;-64
2022/11/08 04:46:28;;;;;;;30.75;17.88;;;7.50;99.90;;;;;;4992192;28;20269;-62
2022/11/08 04:48:56;;;;;;;31.95;18.27;;;7.50;99.90;;;;;;4992525;28;20442;-63
2022/11/08 04:51:27;;;;;;;32.28;19.00;;;7.50;99.90;;;;;;4991989;28;20074;-64
2022/11/08 04:53:55;;;;;;;32.03;19.58;;;7.50;99.90;;;;;;4992518;28;20034;-64
2022/11/08 04:56:21;;;;;;;30.00;19.33;;;7.50;99.90;;;;;;4992400;28;20057;-64
2022/11/08 04:58:55;;;;;;;34.15;19.25;;;7.50;99.90;;;;;;4991280;28;20082;-64
2022/11/08 05:01:26;;;;;;;36.53;18.15;;;7.40;99.90;;;;;;4991920;28;20022;-61
2022/11/08 05:03:53;;;;;;;45.00;23.02;;;7.40;99.90;;;;;;4992132;28;20114;-62
2022/11/08 05:06:27;;;;;;;34.63;20.58;;;7.20;99.90;;;;;;4991954;28;20051;-64
2022/11/08 05:08:54;;;;;;;41.10;22.92;;;7.20;99.90;;;;;;4974367;28;20030;-65
2022/11/08 05:11:22;;;;;;;69.03;34.53;;;7.20;99.90;;;;;;4991567;28;20030;-65
2022/11/08 05:13:49;;;;;;;58.85;31.38;;;7.00;99.90;;;;;;4986320;28;20034;-62
2022/11/08 05:16:21;;;;;;;54.60;29.25;;;6.80;99.90;;;;;;4990470;28;20548;-62
2022/11/08 05:18:47;;;;;;;55.75;28.13;;;6.70;99.90;;;;;;4991731;28;20142;-63
2022/11/08 05:24:01;;;;;;;53.78;29.02;;;6.60;99.90;;;;;;4991817;28;20161;-63
2022/11/08 05:26:27;;;;;;;50.42;26.55;;;6.40;99.90;;;;;;4991383;28;20397;-61
2022/11/08 05:28:53;;;;;;;34.20;20.00;;;6.30;99.90;;;;;;4973454;28;20030;-61
2022/11/08 05:31:18;;;;;;;36.92;20.55;;;6.10;99.90;;;;;;4990756;28;20037;-62
2022/11/08 05:33:44;;;;;;;33.88;18.90;;;6.10;99.90;;;;;;4991143;28;20022;-62
2022/11/08 05:36:13;;;;;;;33.90;19.70;;;6.00;99.90;;;;;;4991170;28;20529;-61
2022/11/08 05:38:40;;;;;;;36.90;20.33;;;5.90;99.90;;;;;;4989231;28;20544;-63
2022/11/08 05:41:17;;;;;;;37.65;21.77;;;5.90;99.90;;;;;;4989971;28;20097;-63
2022/11/08 05:43:48;;;;;;;;;;;5.70;99.90;;;;;;4978528;28;20135;-62
2022/11/08 05:46:15;;;;;;;38.15;21.35;;;5.70;99.90;;;;;;4990681;28;19965;-64
2022/11/08 05:48:45;;;;;;;35.38;20.80;;;5.70;99.90;;;;;;4990922;28;20556;-64
2022/11/08 05:51:12;;;;;;;44.95;26.10;;;5.60;99.90;;;;;;4989940;28;20572;-61
2022/11/08 05:53:38;;;;;;;47.50;27.00;;;5.50;99.90;;;;;;4981287;28;20034;-60
2022/11/08 05:56:05;;;;;;;45.25;25.08;;;5.50;99.90;;;;;;4991442;28;20041;-62
2022/11/08 05:58:32;;;;;;;73.20;40.08;;;5.40;99.90;;;;;;4991039;28;20026;-63
2022/11/08 06:01:02;;;;;;;;;;;5.30;99.90;;;;;;4991260;28;20026;-62
2022/11/08 06:03:28;;;;;;;92.95;50.38;;;5.30;99.90;;;;;;4980404;28;19925;-64
2022/11/08 06:05:53;;;;;;;98.38;51.17;;;5.20;99.90;;;;;;4971374;28;20047;-63
2022/11/08 06:08:19;;;;;;;89.85;46.85;;;5.10;99.90;;;;;;4983382;28;20027;-62
2022/11/08 06:10:45;;;;;;;82.47;43.65;;;5.10;99.90;;;;;;4990442;28;20034;-62
2022/11/08 06:13:10;;;;;;;77.75;43.95;;;5.10;99.90;;;;;;4977607;28;20118;-61
2022/11/08 06:15:36;;;;;;;65.75;39.17;;;5.20;99.90;;;;;;4989577;28;20026;-61
2022/11/08 06:18:04;;;;;;;62.88;37.72;;;5.10;99.90;;;;;;4989100;28;20069;-63
2022/11/08 06:20:30;;;;;;;59.45;36.25;;;5.20;99.90;;;;;;4989851;28;20054;-62
2022/11/08 06:22:56;;;;;;;66.45;37.97;;;5.20;99.90;;;;;;4990461;28;20097;-64
2022/11/08 06:25:22;;;;;;;70.50;38.17;;;5.20;99.90;;;;;;4990561;28;20038;-63
2022/11/08 06:27:47;;;;;;;72.75;38.80;;;5.20;99.90;;;;;;4990868;28;20056;-63
2022/11/08 06:30:14;;;;;;;65.05;38.03;;;5.10;99.90;;;;;;4973092;28;20548;-62
2022/11/08 06:32:40;;;;;;;70.47;38.15;;;5.20;99.90;;;;;;4990010;28;20050;-64
2022/11/08 06:35:06;;;;;;;68.10;40.55;;;5.20;99.90;;;;;;4970984;28;20034;-62
2022/11/08 06:37:32;;;;;;;69.47;40.63;;;5.30;99.90;;;;;;4970267;28;20019;-62
2022/11/08 06:39:58;;;;;;;74.20;45.03;;;5.40;99.90;;;;;;4970896;28;20760;-63
2022/11/08 06:42:24;;;;;;;73.43;43.40;;;5.30;99.90;;;;;;4970108;28;20586;-63
2022/11/08 06:44:50;;;;;;;70.23;42.57;;;5.30;99.90;;;;;;4970237;28;20125;-63
2022/11/08 06:47:16;;;;;;;84.90;45.85;;;5.40;99.90;;;;;;4970914;28;20397;-63
2022/11/08 06:49:41;;;;;;;91.78;51.53;;;5.40;99.90;;;;;;4969103;28;20113;-63
2022/11/08 06:52:07;;;;;;;98.45;49.10;;;5.40;99.90;;;;;;4968441;28;20034;-62
2022/11/08 06:54:33;;;;;;;87.22;48.38;;;5.50;99.90;;;;;;4970389;28;20030;-63
2022/11/08 06:57:00;;;;;;;93.15;49.75;;;5.60;99.90;;;;;;4955248;28;20023;-62
2022/11/08 06:59:26;;;;;;;97.85;52.97;;;5.60;99.90;;;;;;4992534;28;20485;-62
2022/11/08 07:01:53;;;;;;;104.00;55.42;;;5.70;99.90;;;;;;4994219;28;20030;-63
2022/11/08 07:04:18;;;;;;;111.27;55.20;;;5.70;99.90;;;;;;4993840;28;20482;-63
2022/11/08 07:06:44;;;;;;;100.70;51.90;;;5.80;99.90;;;;;;4993818;28;20057;-62
2022/11/08 07:09:10;;;;;;;99.28;50.70;;;5.90;99.90;;;;;;4993783;28;20065;-63
2022/11/08 07:11:36;;;;;;;93.82;48.28;;;6.00;99.90;;;;;;4994255;28;20086;-64
2022/11/08 07:14:01;;;;;;;86.47;44.85;;;6.20;99.90;;;;;;4976434;28;20023;-63
2022/11/08 07:16:27;;;;;;;73.57;41.72;;;6.20;99.90;;;;;;4993531;28;20030;-61
2022/11/08 07:18:54;;;;;;;65.72;35.70;;;6.30;99.90;;;;;;4997568;28;20026;-63
2022/11/08 07:21:20;;;;;;;73.80;37.10;;;6.50;99.90;;;;;;4987865;28;20048;-63
2022/11/08 07:23:47;;;;;;;63.33;36.50;;;6.60;99.90;;;;;;4976160;28;20035;-63
2022/11/08 07:26:13;;;;;;;61.88;36.00;;;6.60;99.90;;;;;;5001691;28;20113;-64
2022/11/08 07:28:39;;;;;;;65.00;37.03;;;6.70;99.90;;;;;;5012983;28;20488;-64
2022/11/08 07:31:05;;;;;;;68.55;36.83;;;6.90;99.90;;;;;;4995406;28;20033;-64
2022/11/08 07:33:31;;;;;;;63.22;34.88;;;7.00;99.90;;;;;;5012830;28;20077;-64
2022/11/08 07:35:57;;;;;;;68.97;35.97;;;7.10;99.90;;;;;;5012944;28;20054;-64
2022/11/08 07:38:24;;;;;;;70.88;37.63;;;7.30;99.90;;;;;;5007261;28;20474;-64
2022/11/08 07:40:50;;;;;;;;;;;7.50;99.90;;;;;;4976113;28;20082;-64
2022/11/08 07:43:16;;;;;;;65.30;36.47;;;7.60;99.90;;;;;;4993250;28;19905;-63
2022/11/08 07:45:42;;;;;;;60.28;34.83;;;7.80;99.90;;;;;;4991664;28;20490;-65
2022/11/08 07:48:10;;;;;;;60.00;32.72;;;8.00;99.90;;;;;;4993187;28;20065;-65
2022/11/08 07:50:36;;;;;;;53.10;30.38;;;8.20;99.90;;;;;;4993305;28;20053;-63
2022/11/08 07:53:01;;;;;;;47.90;26.92;;;8.40;99.90;;;;;;4993395;28;20386;-65
2022/11/08 07:55:27;;;;;;;54.20;27.65;;;8.70;99.90;;;;;;4975607;28;20520;-65
2022/11/08 07:58:00;;;;;;;40.38;20.80;;;8.90;99.90;;;;;;4992848;28;20042;-65
2022/11/08 08:00:27;;;;;;;37.88;19.67;;;9.10;99.90;;;;;;4992918;28;20057;-65
2022/11/08 08:02:59;;;;;;;38.37;21.07;;;9.50;99.90;;;;;;4993081;28;20423;-68
2022/11/08 08:05:27;;;;;;;39.33;20.63;;;9.70;99.90;;;;;;4992770;28;20198;-65
2022/11/08 08:08:00;;;;;;;39.92;18.52;;;9.90;99.90;;;;;;4975022;28;20130;-63
2022/11/08 08:10:27;;;;;;;39.83;19.00;;;10.10;99.90;;;;;;4992170;28;20023;-62
2022/11/08 08:12:54;;;;;;;33.78;19.40;;;10.30;99.90;;;;;;4992743;28;20022;-67
2022/11/08 08:15:20;;;;;;;36.83;17.13;;;10.50;99.90;;;;;;4992543;28;20074;-63
2022/11/08 08:17:46;;;;;;;27.92;14.73;;;11.10;99.90;;;;;;4992502;28;20359;-64
2022/11/08 08:20:12;;;;;;;28.58;15.55;;;11.10;99.90;;;;;;4992952;28;20034;-61
2022/11/08 08:22:46;;;;;;;31.48;13.32;;;11.30;99.90;;;;;;4992681;28;20106;-63
2022/11/08 08:25:12;;;;;;;26.30;12.52;;;12.00;99.90;;;;;;4992447;28;20045;-66
2022/11/08 08:27:38;;;;;;;23.33;11.23;;;11.40;99.90;;;;;;4975318;28;20026;-62
2022/11/08 08:30:05;;;;;;;22.60;10.80;;;11.80;99.90;;;;;;4992593;28;20042;-62
2022/11/08 08:32:31;;;;;;;25.63;10.85;;;11.90;99.90;;;;;;4992471;28;20038;-65
2022/11/08 08:34:57;;;;;;;20.83;10.13;;;11.70;99.90;;;;;;4992634;28;20093;-65
2022/11/08 08:37:22;;;;;;;30.48;11.35;;;11.70;99.90;;;;;;4974827;28;20390;-67
2022/11/08 08:39:48;;;;;;;22.10;10.23;;;12.20;99.90;;;;;;4974784;28;20065;-67
2022/11/08 08:42:14;;;;;;;22.42;9.93;;;12.60;99.90;;;;;;4992236;28;20545;-62
2022/11/08 08:44:39;;;;;;;18.60;10.40;;;12.50;99.90;;;;;;4992179;28;20038;-63
2022/11/08 08:47:05;;;;;;;17.52;10.25;;;12.80;99.90;;;;;;4992420;28;20046;-60
2022/11/08 08:49:30;;;;;;;18.73;8.23;;;13.30;99.90;;;;;;4992259;28;20037;-60
2022/11/08 08:51:56;;;;;;;20.80;9.68;;;13.20;99.90;;;;;;4992292;28;20561;-66
2022/11/08 08:54:22;;;;;;;19.38;9.20;;;13.30;99.90;;;;;;4992249;28;20026;-69
2022/11/08 08:56:47;;;;;;;18.88;10.35;;;13.20;99.90;;;;;;4991876;28;20498;-67
2022/11/08 08:59:13;;;;;;;17.77;8.50;;;12.50;99.90;;;;;;4991967;28;20030;-66
2022/11/08 09:01:39;;;;;;;17.02;9.77;;;12.70;99.90;;;;;;4991796;28;20042;-66
2022/11/08 09:04:05;;;;;;;17.88;9.60;;;12.40;99.90;;;;;;4991880;28;20022;-68
2022/11/08 09:06:31;;;;;;;21.13;8.93;;;12.60;99.90;;;;;;4991805;28;20081;-69
2022/11/08 09:08:56;;;;;;;19.08;8.43;;;13.00;99.90;;;;;;4991846;28;20022;-66
2022/11/08 09:11:22;;;;;;;15.85;8.18;;;13.10;99.90;;;;;;4958243;28;20035;-68
2022/11/08 09:13:48;;;;;;;15.25;8.40;;;13.00;99.90;;;;;;4991707;28;20055;-66
2022/11/08 09:16:13;;;;;;;18.88;8.40;;;13.00;99.90;;;;;;4991993;28;20104;-65
2022/11/08 09:18:40;;;;;;;17.95;8.90;;;13.40;99.90;;;;;;4991972;28;20065;-60
2022/11/08 09:21:06;;;;;;;21.52;8.57;;;13.40;99.90;;;;;;4990379;28;20077;-67
2022/11/08 09:23:32;;;;;;;14.75;8.18;;;13.60;99.90;;;;;;4990897;28;20067;-69
2022/11/08 09:25:59;;;;;;;16.92;8.32;;;14.10;99.90;;;;;;4973595;28;20074;-67
2022/11/08 09:28:25;;;;;;;15.13;7.78;;;13.90;99.90;;;;;;4991225;28;20023;-61
2022/11/08 09:30:51;;;;;;;14.73;7.97;;;13.80;99.90;;;;;;4973781;28;20042;-67
2022/11/08 09:33:16;;;;;;;15.40;7.18;;;14.00;99.90;;;;;;4991273;28;20098;-66
2022/11/08 09:35:45;;;;;;;14.40;7.07;;;14.30;99.90;;;;;;4973589;28;20045;-61
2022/11/08 09:38:10;;;;;;;14.93;6.90;;;13.80;99.90;;;;;;4991218;28;20046;-67
2022/11/08 09:40:47;;;;;;;13.70;7.10;;;13.90;99.90;;;;;;4991231;28;20113;-69
2022/11/08 09:43:22;;;;;;;12.05;6.53;;;13.70;99.90;;;;;;4973725;28;20029;-63
2022/11/08 09:45:51;;;;;;;22.42;5.93;;;14.10;99.90;;;;;;4991058;28;20046;-60
2022/11/08 09:48:36;;;;;;;13.13;5.05;;;14.20;99.90;;;;;;4973686;28;20173;-69
2022/11/08 09:51:14;;;;;;;8.25;4.55;;;14.50;99.90;;;;;;4990886;28;20030;-69
2022/11/08 09:53:54;;;;;;;18.40;5.70;;;14.80;99.90;;;;;;4973524;28;20117;-66
2022/11/08 09:56:46;;;;;;;10.10;5.45;;;15.00;99.90;;;;;;4990963;28;20049;-64
2022/11/08 09:59:11;;;;;;;13.55;4.80;;;15.20;99.90;;;;;;4970674;28;20522;-66
2022/11/08 10:01:38;;;;;;;11.77;4.95;;;15.10;99.90;;;;;;4990911;28;20038;-60
2022/11/08 10:04:15;;;;;;;10.02;4.45;;;15.30;99.90;;;;;;4990849;28;20045;-63
2022/11/08 10:06:41;;;;;;;10.77;3.90;;;15.50;99.90;;;;;;4973096;28;20493;-69
2022/11/08 10:09:17;;;;;;;8.48;3.78;;;15.40;99.90;;;;;;4990594;28;20080;-68
2022/11/08 10:12:07;;;;;;;9.13;3.83;;;15.30;99.90;;;;;;4990846;28;20135;-60
2022/11/08 10:14:41;;;;;;;8.85;3.65;;;15.30;99.90;;;;;;4990934;28;20042;-66
2022/11/08 10:17:19;;;;;;;7.68;3.17;;;16.30;99.90;;;;;;5005564;28;20031;-65
2022/11/08 10:20:13;;;;;;;15.18;4.45;;;16.30;99.90;;;;;;4990737;28;20076;-60
2022/11/08 10:22:52;;;;;;;10.85;3.95;;;16.80;99.90;;;;;;4990335;28;20038;-59
2022/11/08 10:25:37;;;;;;;9.43;3.78;;;16.70;99.90;;;;;;4990381;28;20389;-61
2022/11/08 10:28:05;;;;;;;12.98;4.15;;;17.10;99.90;;;;;;4990546;28;20022;-62
2022/11/08 10:30:39;;;;;;;10.30;4.78;;;17.60;99.90;;;;;;4990431;28;20023;-64
2022/11/08 10:33:40;;;;;;;17.77;5.47;;;17.10;99.90;;;;;;4990047;28;20050;-60
2022/11/08 10:36:14;;;;;;;15.27;4.55;;;17.60;99.90;;;;;;4987010;28;20112;-59
2022/11/08 10:38:46;;;;;;;11.48;4.13;;;17.40;99.70;;;;;;4990451;28;20026;-59
2022/11/08 10:41:17;;;;;;;8.05;3.55;;;17.30;99.60;;;;;;4972886;28;20022;-62
2022/11/08 10:43:50;;;;;;;7.50;3.50;;;17.20;99.40;;;;;;4990556;28;20165;-67
2022/11/08 10:46:43;;;;;;;10.88;3.58;;;17.80;98.30;;;;;;4990228;28;20049;-69
2022/11/08 10:49:39;;;;;;;6.28;2.85;;;17.40;98.10;;;;;;4969276;28;20398;-66
2022/11/08 10:52:10;;;;;;;10.50;3.60;;;17.30;96.30;;;;;;4970681;28;20031;-67
2022/11/08 10:54:51;;;;;;;17.45;4.82;;;17.30;96.30;;;;;;4970577;28;20434;-69
2022/11/08 10:57:46;;;;;;;10.13;4.60;;;17.60;97.40;;;;;;4974776;28;20022;-69
2022/11/08 11:00:20;;;;;;;9.18;3.42;;;17.60;96.50;;;;;;4988178;28;20126;-64
2022/11/08 11:03:09;;;;;;;7.97;3.65;;;17.70;96.70;;;;;;4989804;28;20030;-66
2022/11/08 11:05:39;;;;;;;13.27;3.30;;;17.60;94.90;;;;;;4977640;28;20093;-63
2022/11/08 11:08:08;;;;;;;7.07;3.33;;;16.70;94.80;;;;;;4990299;28;20478;-71
2022/11/08 11:10:42;;;;;;;6.80;2.83;;;17.00;96.60;;;;;;4989712;28;20887;-60
2022/11/08 11:13:28;;;;;;;4.20;2.15;;;17.00;95.60;;;;;;4990064;28;20772;-65
2022/11/08 11:15:57;;;;;;;6.20;2.55;;;16.90;94.70;;;;;;4990023;28;20026;-61
2022/11/08 11:18:51;;;;;;;10.60;3.90;;;16.70;95.40;;;;;;4990222;28;20018;-69
2022/11/08 11:21:19;;;;;;;6.07;2.42;;;16.80;95.60;;;;;;4972220;28;20039;-71
2022/11/08 11:23:46;;;;;;;6.72;2.67;;;16.70;94.70;;;;;;4989907;28;20023;-68
2022/11/08 11:26:33;;;;;;;6.07;2.78;;;17.20;95.40;;;;;;4989697;28;20038;-71
2022/11/08 11:29:18;;;;;;;9.27;3.03;;;17.00;94.90;;;;;;4989762;28;20481;-71
2022/11/08 11:31:46;;;;;;;10.18;3.65;;;17.20;95.80;;;;;;4989714;28;20521;-67
2022/11/08 11:34:18;;;;;;;11.10;3.08;;;16.90;95.80;;;;;;4990009;28;20030;-61
2022/11/08 11:36:51;;;;;;;10.48;3.53;;;17.20;94.60;;;;;;4989689;28;20052;-62
2022/11/08 11:39:40;;;;;;;7.88;3.53;;;17.40;95.10;;;;;;4989827;28;20023;-69
2022/11/08 11:42:12;;;;;;;13.02;3.58;;;17.20;95.00;;;;;;4988976;28;20094;-64
2022/11/08 11:44:54;;;;;;;8.88;3.58;;;17.40;94.00;;;;;;4991023;28;20053;-61
2022/11/08 11:47:49;;;;;;;7.95;3.30;;;17.70;94.00;;;;;;4993160;28;20077;-68
2022/11/08 11:50:37;;;;;;;10.80;4.10;;;17.50;93.60;;;;;;4993484;28;20426;-60
2022/11/08 11:53:21;;;;;;;12.73;4.07;;;17.60;93.50;;;;;;4973644;28;20035;-62
2022/11/08 11:55:52;;;;;;;13.35;4.80;;;17.00;93.30;;;;;;4975557;28;20033;-70
2022/11/08 11:58:56;;;;;;;9.65;3.72;;;16.90;94.40;;;;;;4992897;28;20031;-70
2022/11/08 12:01:39;;;;;;;8.93;3.67;;;17.10;93.90;;;;;;4968997;28;20466;-66
2022/11/08 12:04:14;;;;;;;8.10;3.20;;;17.30;93.50;;;;;;4981058;28;20026;-69
2022/11/08 12:06:58;;;;;;;11.02;4.28;;;17.50;93.60;;;;;;5001559;28;20088;-64
2022/11/08 12:09:42;;;;;;;10.88;4.00;;;17.30;94.00;;;;;;4992998;28;20128;-61
2022/11/08 12:12:52;;;;;;;9.20;4.32;;;17.00;93.30;;;;;;5011144;28;20485;-63
2022/11/08 12:15:32;;;;;;;14.35;5.05;;;17.30;93.50;;;;;;4975058;28;20034;-64
2022/11/08 12:18:08;;;;;;;11.88;4.95;;;17.90;92.30;;;;;;5012209;28;20028;-68
2022/11/08 12:20:49;;;;;;;10.77;4.22;;;19.40;87.40;;;;;;5012047;28;20030;-68
2022/11/08 12:24:09;;;;;;;14.65;4.20;;;20.40;79.90;;;;;;4987238;28;20026;-66
2022/11/08 12:26:40;;;;;;;9.20;3.88;;;20.80;77.90;;;;;;4913020;29;20166;-61
2022/11/08 12:29:17;;;;;;;9.43;4.43;;;20.50;78.80;;;;;;4978567;28;20050;-65
2022/11/08 12:32:06;;;;;;;12.18;4.30;;;19.40;81.20;;;;;;4992463;28;20050;-62
2022/11/08 12:34:51;;;;;;;;;;;18.80;84.30;;;;;;4992993;28;20485;-61
2022/11/08 12:37:25;;;;;;;14.35;4.38;;;18.50;85.30;;;;;;4992433;28;19953;-61
2022/11/08 12:40:10;;;;;;;9.43;3.72;;;17.60;87.80;;;;;;4992213;28;20022;-69
2022/11/08 12:42:52;;;;;;;10.70;4.45;;;17.50;89.60;;;;;;4992085;28;20034;-68
2022/11/08 12:45:39;;;;;;;8.65;3.80;;;17.40;90.00;;;;;;4992164;28;20246;-61
2022/11/08 12:48:16;;;;;;;10.52;4.45;;;17.60;90.10;;;;;;4992287;28;20374;-68
2022/11/08 12:51:01;;;;;;;12.05;4.72;;;17.30;90.60;;;;;;4991940;28;20025;-67
2022/11/08 12:53:47;;;;;;;9.82;4.35;;;17.00;90.40;;;;;;4991897;28;20037;-66
2022/11/08 12:56:29;;;;;;;8.45;3.72;;;17.30;90.90;;;;;;4991890;28;20018;-63
2022/11/08 12:58:55;;;;;;;9.18;3.22;;;17.30;90.70;;;;;;4992191;28;20038;-63
2022/11/08 13:01:22;;;;;;;10.25;4.38;;;17.20;90.90;;;;;;4991751;28;20165;-66
2022/11/08 13:03:50;;;;;;;8.20;3.40;;;17.20;90.90;;;;;;4991846;28;20022;-61
2022/11/08 13:06:55;;;;;;;11.30;4.20;;;17.20;91.20;;;;;;4973900;28;20758;-67
2022/11/08 13:09:20;;;;;;;6.18;2.88;;;17.30;90.60;;;;;;4991606;28;20030;-66
2022/11/08 13:12:04;;;;;;;6.57;3.50;;;17.00;90.90;;;;;;4991094;28;20029;-67
2022/11/08 13:14:32;;;;;;;11.93;3.83;;;17.20;91.40;;;;;;4991116;28;20037;-65